Time;durP1;ratioP1;P1;durP2;ratioP2;P2;SDS_P1;SDS_P2;PMS_P1;PMS_P2;Temp;Humidity;BMP_temperature;BMP_pressure;BME280_temperature;BME280_humidity;BME280_pressure;Samples;Min_cycle;Max_cycle;Signal;HPM_P1;HPM_P2
2021/01/30 00:00:17;;;;;;;6.38;3.90;;;8.90;80.50;;;;;;4892637;29;20021;-94
2021/01/30 00:02:43;;;;;;;7.80;3.95;;;8.90;80.60;;;;;;4877322;29;20534;-94
2021/01/30 00:05:10;;;;;;;8.93;4.07;;;8.90;80.50;;;;;;4885777;29;20017;-93
2021/01/30 00:07:55;;;;;;;9.52;4.40;;;8.90;80.50;;;;;;4897133;29;20467;-94
2021/01/30 00:10:22;;;;;;;8.35;3.88;;;8.80;80.50;;;;;;4868825;29;20033;-95
2021/01/30 00:12:48;;;;;;;6.78;3.22;;;8.80;80.50;;;;;;4886815;29;20037;-94
2021/01/30 00:15:17;;;;;;;6.30;3.60;;;8.80;80.60;;;;;;4894781;29;20035;-95
2021/01/30 00:17:43;;;;;;;;;;;8.80;80.60;;;;;;4893465;29;20028;-94
2021/01/30 00:20:11;;;;;;;8.32;3.88;;;8.70;80.50;;;;;;4894571;29;19919;-93
2021/01/30 00:22:36;;;;;;;7.80;3.70;;;8.70;80.60;;;;;;4885466;29;20120;-94
2021/01/30 00:25:03;;;;;;;7.90;4.10;;;8.70;80.60;;;;;;4864333;24;20143;-93
2021/01/30 00:27:29;;;;;;;8.90;3.80;;;8.70;80.70;;;;;;4899214;29;20024;-92
2021/01/30 00:29:55;;;;;;;8.13;3.97;;;8.70;80.70;;;;;;4899739;29;20165;-93
2021/01/30 00:32:22;;;;;;;8.00;4.30;;;8.60;80.80;;;;;;4899894;29;20064;-92
2021/01/30 00:34:48;;;;;;;9.38;4.28;;;8.60;80.80;;;;;;4899548;29;20036;-93
2021/01/30 00:37:21;;;;;;;10.80;4.03;;;8.60;80.80;;;;;;4899539;29;20033;-92
2021/01/30 00:39:49;;;;;;;9.93;5.50;;;8.60;80.80;;;;;;4899286;29;20033;-94
2021/01/30 00:42:16;;;;;;;10.23;3.57;;;8.60;80.80;;;;;;4899480;29;20029;-93
2021/01/30 00:44:42;;;;;;;10.48;3.70;;;8.60;80.90;;;;;;4899089;29;20029;-93
2021/01/30 00:47:08;;;;;;;7.20;3.45;;;8.60;80.80;;;;;;4899113;29;20035;-93
2021/01/30 00:49:35;;;;;;;7.55;3.80;;;8.60;81.20;;;;;;4899247;29;20034;-93
2021/01/30 00:52:02;;;;;;;8.75;4.00;;;8.50;80.70;;;;;;4898788;29;20028;-93
2021/01/30 00:54:27;;;;;;;4.78;2.78;;;8.50;80.70;;;;;;4899009;29;20120;-93
2021/01/30 00:56:55;;;;;;;8.38;3.70;;;8.50;80.70;;;;;;4883644;29;20066;-93
2021/01/30 00:59:22;;;;;;;8.80;3.70;;;8.60;80.70;;;;;;4882960;29;20069;-93
2021/01/30 01:01:50;;;;;;;8.00;4.38;;;8.50;80.60;;;;;;4898886;29;20111;-92
2021/01/30 01:04:16;;;;;;;11.60;6.78;;;8.50;80.40;;;;;;4898120;29;20036;-92
2021/01/30 01:06:41;;;;;;;12.45;8.52;;;8.40;80.00;;;;;;4897896;29;20497;-92
2021/01/30 01:09:08;;;;;;;14.98;10.00;;;8.40;79.60;;;;;;4867266;29;20040;-93
2021/01/30 01:11:36;;;;;;;17.77;10.60;;;8.30;79.50;;;;;;4898447;29;20029;-94
2021/01/30 01:14:02;;;;;;;14.20;10.30;;;8.30;79.40;;;;;;4882748;29;20040;-94
2021/01/30 01:16:28;;;;;;;13.20;9.63;;;8.20;79.20;;;;;;4898070;29;20032;-94
2021/01/30 01:18:54;;;;;;;16.60;11.00;;;8.10;79.20;;;;;;4881885;29;20028;-92
2021/01/30 01:21:20;;;;;;;20.30;12.25;;;8.10;79.00;;;;;;4887096;29;20106;-92
2021/01/30 01:23:46;;;;;;;21.55;12.43;;;8.00;78.30;;;;;;4864107;29;20052;-92
2021/01/30 01:26:14;;;;;;;18.88;11.43;;;7.90;78.20;;;;;;4878571;29;20495;-93
2021/01/30 01:28:40;;;;;;;19.57;10.73;;;7.80;78.20;;;;;;4879337;29;20476;-93
2021/01/30 01:31:06;;;;;;;16.95;9.70;;;7.70;78.10;;;;;;4879302;29;20316;-91
2021/01/30 01:33:32;;;;;;;14.00;8.65;;;7.70;78.20;;;;;;4879222;29;20065;-92
2021/01/30 01:35:59;;;;;;;14.48;9.25;;;7.60;78.20;;;;;;4879265;29;20037;-93
2021/01/30 01:38:25;;;;;;;15.40;10.10;;;7.60;78.30;;;;;;4879135;29;20036;-92
2021/01/30 01:40:51;;;;;;;14.80;9.88;;;7.60;78.30;;;;;;4879629;29;20033;-92
2021/01/30 01:43:20;;;;;;;15.43;10.60;;;7.50;77.90;;;;;;4866739;29;20472;-93
2021/01/30 01:46:05;;;;;;;;;;;7.40;77.80;;;;;;4879540;29;20029;-93
2021/01/30 01:48:33;;;;;;;19.20;10.32;;;7.40;77.60;;;;;;4879219;29;19908;-92
2021/01/30 01:51:02;;;;;;;17.40;10.65;;;7.30;77.90;;;;;;4878749;29;20033;-91
2021/01/30 01:53:33;;;;;;;16.02;10.85;;;7.30;77.40;;;;;;4878848;29;20070;-92
2021/01/30 01:56:15;;;;;;;14.93;9.30;;;7.20;77.40;;;;;;4878909;29;20044;-92
2021/01/30 01:58:44;;;;;;;11.43;8.13;;;7.10;77.10;;;;;;4878219;29;20128;-92
2021/01/30 02:01:12;;;;;;;9.88;7.45;;;7.00;76.20;;;;;;4878612;29;20033;-92
2021/01/30 02:03:41;;;;;;;8.88;6.50;;;6.90;76.30;;;;;;4878454;29;20026;-92
2021/01/30 02:06:07;;;;;;;11.32;7.38;;;6.90;76.40;;;;;;4878096;29;20077;-92
2021/01/30 02:08:34;;;;;;;8.90;5.85;;;6.80;75.70;;;;;;4877152;29;20037;-92
2021/01/30 02:11:00;;;;;;;11.27;6.32;;;6.80;75.50;;;;;;4862956;29;20033;-92
2021/01/30 02:13:30;;;;;;;7.68;5.25;;;6.70;75.50;;;;;;4877875;29;20084;-92
2021/01/30 02:16:04;;;;;;;8.07;5.05;;;6.60;75.40;;;;;;4878286;29;20084;-91
2021/01/30 02:18:39;;;;;;;6.65;4.68;;;6.60;75.40;;;;;;4878803;29;20029;-91
2021/01/30 02:21:08;;;;;;;6.25;5.15;;;6.60;75.30;;;;;;4896706;29;20039;-92
2021/01/30 02:23:56;;;;;;;9.05;5.35;;;6.50;75.10;;;;;;4896922;29;20020;-91
2021/01/30 02:26:59;;;;;;;6.57;4.85;;;6.40;74.30;;;;;;4899993;29;20060;-92
2021/01/30 02:29:34;;;;;;;6.13;3.83;;;6.40;74.60;;;;;;4901059;29;20364;-92
2021/01/30 02:32:27;;;;;;;5.22;3.30;;;6.30;75.00;;;;;;4901093;29;20486;-92
2021/01/30 02:35:30;;;;;;;7.25;4.70;;;6.30;75.10;;;;;;4900675;29;20032;-91
2021/01/30 02:38:05;;;;;;;7.40;4.90;;;6.30;74.70;;;;;;4899991;29;20100;-91
2021/01/30 02:40:38;;;;;;;5.28;4.00;;;6.20;74.60;;;;;;4900297;29;20029;-91
2021/01/30 02:43:18;;;;;;;5.20;3.67;;;6.20;75.00;;;;;;4900560;29;20116;-92
2021/01/30 02:45:52;;;;;;;5.22;3.70;;;6.10;75.20;;;;;;4900469;29;20028;-91
2021/01/30 02:48:22;;;;;;;5.00;3.85;;;6.10;75.30;;;;;;4900224;29;20060;-91
2021/01/30 02:50:58;;;;;;;5.40;3.85;;;6.10;75.30;;;;;;4883642;29;20033;-91
2021/01/30 02:53:36;;;;;;;5.30;3.70;;;6.10;75.30;;;;;;4881411;29;20149;-90
2021/01/30 02:56:04;;;;;;;6.13;3.85;;;6.10;75.50;;;;;;4881837;29;20037;-91
2021/01/30 02:58:52;;;;;;;5.60;4.13;;;6.10;75.60;;;;;;4881100;29;20108;-92
2021/01/30 03:01:19;;;;;;;7.05;5.30;;;6.10;75.70;;;;;;4899912;29;20035;-91
2021/01/30 03:03:45;;;;;;;7.53;6.07;;;6.00;75.60;;;;;;4884934;29;20486;-92
2021/01/30 03:06:31;;;;;;;8.85;6.90;;;6.00;75.40;;;;;;4900137;29;20097;-90
2021/01/30 03:09:32;;;;;;;7.78;6.55;;;5.90;75.00;;;;;;4896345;29;20061;-92
2021/01/30 03:12:22;;;;;;;6.65;5.63;;;5.90;75.20;;;;;;4881460;29;20033;-92
2021/01/30 03:15:00;;;;;;;7.47;6.20;;;5.80;75.40;;;;;;4881303;29;20036;-91
2021/01/30 03:17:30;;;;;;;8.85;6.65;;;5.80;75.40;;;;;;4880905;29;20029;-92
2021/01/30 03:19:58;;;;;;;10.98;7.80;;;5.70;75.30;;;;;;4881199;29;20092;-91
2021/01/30 03:22:25;;;;;;;8.80;7.32;;;5.70;75.30;;;;;;4880468;29;20032;-91
2021/01/30 03:24:54;;;;;;;10.52;7.90;;;5.60;75.30;;;;;;4880709;29;20105;-91
2021/01/30 03:27:23;;;;;;;9.50;7.53;;;5.60;75.40;;;;;;4865449;29;20033;-91
2021/01/30 03:29:49;;;;;;;;;;;5.60;75.60;;;;;;4881586;29;20476;-91
2021/01/30 03:32:15;;;;;;;11.30;8.90;;;5.60;75.60;;;;;;4879364;29;19916;-92
2021/01/30 03:34:40;;;;;;;11.32;8.63;;;5.50;75.70;;;;;;4849899;29;20029;-91
2021/01/30 03:37:06;;;;;;;9.25;7.88;;;5.50;75.70;;;;;;4865030;29;20041;-91
2021/01/30 03:39:32;;;;;;;12.05;9.02;;;5.50;75.90;;;;;;4865017;29;20487;-91
2021/01/30 03:41:57;;;;;;;12.27;9.95;;;5.50;75.90;;;;;;4865225;29;20064;-89
2021/01/30 03:44:23;;;;;;;13.32;11.07;;;5.40;75.80;;;;;;4865390;29;20064;-91
2021/01/30 03:46:48;;;;;;;12.43;10.60;;;5.40;75.90;;;;;;4865199;29;20029;-90
2021/01/30 03:49:14;;;;;;;12.82;10.98;;;5.30;76.00;;;;;;4854691;29;20091;-91
2021/01/30 03:51:40;;;;;;;16.00;13.48;;;5.30;76.20;;;;;;4880529;29;20064;-91
2021/01/30 03:54:05;;;;;;;22.77;16.73;;;5.30;76.30;;;;;;4865123;29;20499;-90
2021/01/30 03:56:31;;;;;;;26.40;19.58;;;5.30;76.30;;;;;;4865100;29;20041;-91
2021/01/30 03:58:57;;;;;;;29.73;20.48;;;5.20;76.20;;;;;;4865227;29;20039;-92
2021/01/30 04:01:33;;;;;;;26.05;19.48;;;5.10;76.30;;;;;;4864653;29;20033;-90
2021/01/30 04:03:58;;;;;;;25.13;18.92;;;5.10;76.40;;;;;;4879879;29;20029;-90
2021/01/30 04:06:24;;;;;;;24.88;18.65;;;5.10;76.40;;;;;;4864749;29;20041;-90
2021/01/30 04:08:50;;;;;;;26.60;19.42;;;5.00;76.30;;;;;;4864480;29;20041;-90
2021/01/30 04:11:15;;;;;;;25.98;18.98;;;5.00;76.40;;;;;;4880127;29;20411;-91
2021/01/30 04:13:41;;;;;;;23.83;17.70;;;4.90;76.40;;;;;;4879722;29;20399;-91
2021/01/30 04:16:06;;;;;;;23.08;16.92;;;4.90;76.60;;;;;;4879926;29;20029;-90
2021/01/30 04:18:32;;;;;;;27.48;20.52;;;4.90;76.70;;;;;;4879491;29;20128;-91
2021/01/30 04:20:58;;;;;;;30.02;22.58;;;4.80;76.70;;;;;;4883113;29;20135;-91
2021/01/30 04:23:23;;;;;;;27.00;20.55;;;4.80;76.80;;;;;;4867678;29;20036;-90
2021/01/30 04:25:49;;;;;;;29.13;21.63;;;4.80;77.00;;;;;;4882450;29;20056;-91
2021/01/30 04:28:15;;;;;;;31.45;23.17;;;4.70;77.10;;;;;;4877300;29;20088;-90
2021/01/30 04:30:40;;;;;;;29.35;22.15;;;4.60;77.20;;;;;;4848636;29;20043;-91
2021/01/30 04:33:06;;;;;;;28.45;21.95;;;4.60;77.40;;;;;;4864300;29;20040;-90
2021/01/30 04:35:34;;;;;;;31.92;23.40;;;4.60;77.50;;;;;;4851259;29;20025;-90
2021/01/30 04:38:00;;;;;;;29.70;22.35;;;4.50;77.30;;;;;;4879725;29;20066;-90
2021/01/30 04:40:41;;;;;;;26.27;20.65;;;4.50;77.20;;;;;;4880070;29;20037;-90
2021/01/30 04:43:36;;;;;;;26.45;20.35;;;4.40;77.30;;;;;;4881249;29;20037;-90
2021/01/30 04:46:33;;;;;;;23.80;18.48;;;4.40;77.30;;;;;;4879960;29;20060;-89
2021/01/30 04:49:19;;;;;;;23.05;18.17;;;4.40;77.30;;;;;;4879682;29;20112;-90
2021/01/30 04:52:07;;;;;;;22.38;17.58;;;4.40;77.20;;;;;;4879701;29;20110;-90
2021/01/30 04:54:36;;;;;;;21.00;16.15;;;4.40;77.20;;;;;;4880915;29;20029;-90
2021/01/30 04:57:12;;;;;;;;;;;4.40;77.20;;;;;;4880206;29;20043;-90
2021/01/30 04:59:56;;;;;;;22.13;17.45;;;4.30;77.00;;;;;;4879505;29;19967;-90
2021/01/30 05:02:38;;;;;;;25.13;19.83;;;4.30;76.70;;;;;;4897726;29;20097;-90
2021/01/30 05:05:07;;;;;;;23.33;18.35;;;4.20;76.60;;;;;;4897746;29;20029;-90
2021/01/30 05:07:47;;;;;;;;;;;4.20;76.60;;;;;;4898400;29;20463;-90
2021/01/30 05:10:22;;;;;;;24.88;19.48;;;4.10;76.70;;;;;;4882077;29;19907;-90
2021/01/30 05:13:49;;;;;;;23.40;17.92;;;4.10;76.80;;;;;;4878666;29;20471;-90
2021/01/30 05:16:23;;;;;;;25.17;18.77;;;4.10;77.00;;;;;;4806272;29;20070;-91
2021/01/30 05:18:56;;;;;;;24.35;19.35;;;4.10;77.10;;;;;;4877929;29;20033;-92
2021/01/30 05:21:38;;;;;;;22.73;18.10;;;4.00;76.90;;;;;;4878219;29;20295;-91
2021/01/30 05:24:04;;;;;;;22.35;17.35;;;4.00;77.00;;;;;;4878277;29;20029;-91
2021/01/30 05:26:58;;;;;;;20.08;16.75;;;4.00;77.10;;;;;;4862595;29;20053;-92
2021/01/30 05:29:41;;;;;;;26.10;19.42;;;4.00;77.10;;;;;;4887105;29;20024;-92
2021/01/30 05:32:06;;;;;;;21.40;16.83;;;4.00;77.10;;;;;;4879162;29;20033;-92
2021/01/30 05:34:45;;;;;;;23.13;17.83;;;4.00;77.20;;;;;;4893884;29;20475;-93
2021/01/30 05:37:17;;;;;;;22.83;18.20;;;4.00;77.20;;;;;;4896736;29;20093;-92
2021/01/30 05:39:51;;;;;;;25.08;19.55;;;4.00;77.10;;;;;;4896142;29;20032;-92
2021/01/30 05:42:35;;;;;;;23.77;17.80;;;4.00;77.00;;;;;;4896105;29;20036;-92
2021/01/30 05:45:26;;;;;;;22.83;18.05;;;3.90;77.00;;;;;;4881723;29;20476;-92
2021/01/30 05:47:53;;;;;;;20.17;16.45;;;3.90;77.10;;;;;;4890562;29;20131;-92
2021/01/30 05:50:27;;;;;;;25.90;19.95;;;3.90;77.10;;;;;;4896686;29;20033;-92
2021/01/30 05:52:55;;;;;;;24.05;19.13;;;3.90;77.50;;;;;;4896531;29;20059;-91
2021/01/30 05:55:26;;;;;;;21.98;16.67;;;3.90;76.90;;;;;;4896369;29;20061;-92
2021/01/30 05:57:53;;;;;;;25.17;18.13;;;3.90;76.90;;;;;;4896063;29;20398;-92
2021/01/30 06:00:20;;;;;;;24.80;18.58;;;3.90;76.90;;;;;;4897970;29;20036;-92
2021/01/30 06:03:08;;;;;;;22.73;18.20;;;3.90;76.80;;;;;;4884637;29;20474;-92
2021/01/30 06:05:42;;;;;;;25.20;19.15;;;3.80;76.80;;;;;;4900453;29;20029;-92
2021/01/30 06:08:32;;;;;;;24.63;19.00;;;3.80;76.70;;;;;;4900420;29;20032;-91
2021/01/30 06:11:13;;;;;;;23.35;17.58;;;3.80;76.70;;;;;;4890921;29;20029;-92
2021/01/30 06:13:58;;;;;;;21.98;16.70;;;3.70;76.60;;;;;;4898039;29;20028;-92
2021/01/30 06:16:36;;;;;;;22.05;17.50;;;3.70;76.60;;;;;;4893067;29;20543;-92
2021/01/30 06:19:13;;;;;;;18.52;14.60;;;3.70;76.70;;;;;;4881078;29;20047;-92
2021/01/30 06:21:39;;;;;;;23.38;17.77;;;3.70;76.80;;;;;;4881046;29;20048;-92
2021/01/30 06:24:11;;;;;;;24.05;18.40;;;3.70;76.70;;;;;;4866044;29;20403;-91
2021/01/30 06:26:44;;;;;;;23.80;17.88;;;3.70;76.70;;;;;;4880942;29;20547;-92
2021/01/30 06:29:53;;;;;;;21.50;16.25;;;3.70;76.70;;;;;;4890894;29;20089;-92
2021/01/30 06:32:19;;;;;;;20.52;15.60;;;3.70;76.60;;;;;;4889368;29;20135;-87
2021/01/30 06:34:46;;;;;;;22.75;16.90;;;3.70;76.70;;;;;;4899601;29;20116;-87
2021/01/30 06:37:29;;;;;;;23.85;17.95;;;3.70;76.80;;;;;;4899776;29;20131;-87
2021/01/30 06:40:14;;;;;;;23.25;17.90;;;3.60;76.80;;;;;;4910059;24;20045;-83
2021/01/30 06:42:43;;;;;;;24.48;17.08;;;3.60;76.90;;;;;;4898234;29;20032;-83
2021/01/30 06:45:09;;;;;;;;;;;3.60;76.90;;;;;;4890022;29;20505;-83
2021/01/30 06:47:49;;;;;;;24.08;17.35;;;3.60;76.90;;;;;;4897907;29;20283;-84
2021/01/30 06:50:30;;;;;;;25.85;18.95;;;3.60;76.90;;;;;;4898327;29;20033;-83
2021/01/30 06:53:16;;;;;;;26.08;19.23;;;3.60;76.90;;;;;;4897806;29;20047;-83
2021/01/30 06:55:45;;;;;;;26.92;19.60;;;3.60;76.90;;;;;;4899549;29;20041;-83
2021/01/30 06:58:21;;;;;;;30.55;22.75;;;3.60;76.90;;;;;;4867228;29;20029;-83
2021/01/30 07:00:47;;;;;;;29.05;21.95;;;3.50;77.00;;;;;;4897916;29;20439;-84
2021/01/30 07:03:56;;;;;;;29.48;21.92;;;3.50;77.10;;;;;;4882566;29;20108;-83
2021/01/30 07:06:50;;;;;;;;;;;3.50;77.30;;;;;;4872503;29;20041;-84
2021/01/30 07:09:31;;;;;;;30.60;21.95;;;3.40;77.30;;;;;;4829648;29;19912;-83
2021/01/30 07:12:08;;;;;;;32.22;23.75;;;3.40;77.40;;;;;;4895707;29;20033;-85
2021/01/30 07:14:49;;;;;;;27.85;20.70;;;3.40;77.40;;;;;;4898681;29;20497;-84
2021/01/30 07:17:28;;;;;;;28.52;21.52;;;3.40;77.40;;;;;;4899764;29;20033;-84
2021/01/30 07:20:10;;;;;;;30.27;23.02;;;3.40;77.40;;;;;;4885762;29;20056;-85
2021/01/30 07:22:51;;;;;;;29.60;21.77;;;3.40;77.40;;;;;;4889432;29;20021;-84
2021/01/30 07:25:24;;;;;;;29.20;22.13;;;3.40;77.40;;;;;;4889924;29;20028;-85
2021/01/30 07:28:30;;;;;;;28.25;21.23;;;3.40;77.40;;;;;;4889623;29;20027;-84
2021/01/30 07:31:14;;;;;;;26.52;19.95;;;3.30;77.30;;;;;;4907001;29;20116;-84
2021/01/30 07:34:13;;;;;;;29.52;21.60;;;3.30;77.30;;;;;;4881710;29;20036;-84
2021/01/30 07:36:48;;;;;;;26.08;19.98;;;3.30;77.30;;;;;;4867916;29;20407;-84
2021/01/30 07:39:45;;;;;;;32.22;22.55;;;3.30;77.30;;;;;;4881099;29;20096;-85
2021/01/30 07:42:26;;;;;;;26.10;19.58;;;3.30;77.30;;;;;;4886825;29;20035;-85
2021/01/30 07:45:24;;;;;;;29.55;21.88;;;3.20;77.30;;;;;;4876428;29;20543;-84
2021/01/30 07:48:12;;;;;;;25.85;19.92;;;3.30;77.30;;;;;;4876422;29;20403;-85
2021/01/30 07:50:42;;;;;;;27.65;21.45;;;3.30;77.30;;;;;;4877516;29;20068;-83
2021/01/30 07:53:19;;;;;;;27.52;20.83;;;3.30;77.30;;;;;;4877649;29;20056;-83
2021/01/30 07:56:12;;;;;;;30.80;23.45;;;3.30;77.30;;;;;;4880978;29;20436;-85
2021/01/30 07:58:43;;;;;;;29.80;21.60;;;3.20;77.10;;;;;;4882325;29;20367;-85
2021/01/30 08:01:28;;;;;;;30.75;23.27;;;3.30;77.20;;;;;;4889020;29;20044;-84
2021/01/30 08:04:20;;;;;;;32.40;23.10;;;3.20;77.20;;;;;;4889928;29;20028;-85
2021/01/30 08:07:23;;;;;;;29.63;22.45;;;3.20;77.30;;;;;;4897120;29;20029;-85
2021/01/30 08:10:03;;;;;;;27.52;21.05;;;3.20;77.20;;;;;;4887016;29;20099;-83
2021/01/30 08:12:35;;;;;;;27.92;22.05;;;3.20;77.20;;;;;;4885410;29;20068;-84
2021/01/30 08:15:07;;;;;;;32.67;24.67;;;3.20;77.20;;;;;;4878391;29;20107;-86
2021/01/30 08:18:16;;;;;;;29.00;21.83;;;3.20;77.20;;;;;;4878098;29;20033;-87
2021/01/30 08:20:49;;;;;;;;;;;3.20;77.30;;;;;;4834607;29;20044;-87
2021/01/30 08:23:46;;;;;;;27.83;20.88;;;3.20;77.30;;;;;;4879116;29;19994;-87
2021/01/30 08:26:17;;;;;;;27.92;22.10;;;3.20;77.30;;;;;;4883468;29;20033;-86
2021/01/30 08:29:13;;;;;;;30.05;23.13;;;3.20;77.30;;;;;;4893235;29;20318;-86
2021/01/30 08:31:46;;;;;;;28.55;20.95;;;3.20;77.30;;;;;;4878565;29;20033;-86
2021/01/30 08:34:18;;;;;;;25.38;19.70;;;3.20;77.30;;;;;;4888018;29;20068;-86
2021/01/30 08:36:50;;;;;;;25.67;20.42;;;3.20;77.40;;;;;;4892529;29;20456;-86
2021/01/30 08:39:24;;;;;;;29.60;22.00;;;3.20;77.30;;;;;;4896601;29;20073;-86
2021/01/30 08:41:55;;;;;;;25.13;20.17;;;3.20;77.10;;;;;;4897270;29;20063;-86
2021/01/30 08:44:36;;;;;;;27.55;20.17;;;3.20;77.20;;;;;;4897142;29;20028;-86
2021/01/30 08:47:12;;;;;;;23.40;18.40;;;3.20;76.90;;;;;;4896815;29;20372;-86
2021/01/30 08:49:39;;;;;;;21.83;17.05;;;3.10;76.90;;;;;;4898253;29;20032;-86
2021/01/30 08:52:13;;;;;;;21.88;18.33;;;3.10;76.90;;;;;;4875457;29;20096;-86
2021/01/30 08:54:41;;;;;;;22.20;17.42;;;3.20;76.90;;;;;;4879268;29;20055;-87
2021/01/30 08:57:32;;;;;;;21.45;16.30;;;3.10;76.60;;;;;;4881595;29;20053;-86
2021/01/30 09:00:26;;;;;;;22.75;17.52;;;3.10;76.60;;;;;;4876263;29;20052;-85
2021/01/30 09:03:06;;;;;;;22.05;18.08;;;3.10;76.60;;;;;;4846680;29;20045;-86
2021/01/30 09:05:41;;;;;;;22.88;18.15;;;3.10;76.50;;;;;;4883406;29;20073;-86
2021/01/30 09:08:15;;;;;;;21.45;17.33;;;3.10;76.60;;;;;;4876899;29;20033;-85
2021/01/30 09:10:42;;;;;;;20.20;16.40;;;3.10;76.40;;;;;;4883515;29;20448;-86
2021/01/30 09:13:19;;;;;;;20.88;17.23;;;3.10;76.40;;;;;;4870975;29;20072;-86
2021/01/30 09:15:45;;;;;;;22.27;17.25;;;3.10;76.40;;;;;;4869441;29;20025;-86
2021/01/30 09:18:19;;;;;;;21.80;17.30;;;3.00;76.40;;;;;;4884510;29;20499;-86
2021/01/30 09:21:02;;;;;;;18.08;15.10;;;3.00;77.10;;;;;;4888522;29;20029;-85
2021/01/30 09:23:54;;;;;;;20.55;16.58;;;3.00;76.30;;;;;;4882310;29;20480;-85
2021/01/30 09:26:44;;;;;;;20.05;16.65;;;3.00;76.40;;;;;;4849410;29;20044;-86
2021/01/30 09:29:10;;;;;;;19.35;15.98;;;3.10;76.40;;;;;;4879885;29;20029;-86
2021/01/30 09:31:35;;;;;;;17.90;15.52;;;3.10;76.30;;;;;;4845974;29;20051;-86
2021/01/30 09:34:11;;;;;;;18.10;15.57;;;3.10;76.30;;;;;;4877426;29;20041;-86
2021/01/30 09:36:45;;;;;;;20.45;17.33;;;3.10;76.30;;;;;;4887192;29;20033;-86
2021/01/30 09:39:26;;;;;;;21.02;17.23;;;3.10;76.20;;;;;;4883806;29;20072;-86
2021/01/30 09:42:23;;;;;;;20.48;17.10;;;3.10;76.00;;;;;;4891634;29;20044;-86
2021/01/30 09:45:22;;;;;;;19.95;15.65;;;3.10;75.90;;;;;;4884855;29;20025;-86
2021/01/30 09:50:51;;;;;;;18.38;15.02;;;3.10;76.10;;;;;;4894447;29;20001;-87
2021/01/30 09:53:34;;;;;;;17.60;14.35;;;3.10;75.90;;;;;;4882963;29;20093;-87
2021/01/30 09:56:22;;;;;;;17.80;14.60;;;3.10;75.80;;;;;;4880542;29;20033;-85
2021/01/30 09:58:54;;;;;;;17.88;15.30;;;3.10;75.90;;;;;;4885504;29;20388;-85
2021/01/30 10:01:37;;;;;;;15.90;12.60;;;3.10;75.80;;;;;;4880575;29;20033;-84
2021/01/30 10:04:13;;;;;;;17.67;14.65;;;3.10;75.80;;;;;;4876218;29;20056;-84
2021/01/30 10:06:39;;;;;;;16.75;13.75;;;3.10;75.60;;;;;;4874920;29;20429;-85
2021/01/30 10:09:29;;;;;;;15.90;12.32;;;3.10;75.40;;;;;;4858755;29;20037;-85
2021/01/30 10:11:57;;;;;;;13.63;11.57;;;3.10;75.50;;;;;;4876232;29;20044;-85
2021/01/30 10:14:35;;;;;;;13.43;10.87;;;3.10;75.70;;;;;;4879204;29;20031;-84
2021/01/30 10:17:29;;;;;;;13.90;11.18;;;3.10;75.70;;;;;;4883536;29;20029;-84
2021/01/30 10:20:06;;;;;;;12.88;11.23;;;3.10;75.60;;;;;;4877740;29;20040;-84
2021/01/30 10:22:40;;;;;;;13.15;11.15;;;3.10;75.50;;;;;;4885797;29;20037;-84
2021/01/30 10:25:15;;;;;;;12.35;10.45;;;3.10;75.40;;;;;;4884734;29;20021;-84
2021/01/30 10:27:41;;;;;;;11.55;10.32;;;3.20;75.30;;;;;;4887541;29;20039;-84
2021/01/30 10:30:12;;;;;;;12.85;9.98;;;3.20;75.30;;;;;;4871785;29;20037;-84
2021/01/30 10:32:53;;;;;;;13.65;10.48;;;3.20;75.20;;;;;;4883741;29;20124;-84
2021/01/30 10:35:26;;;;;;;13.15;10.20;;;3.20;75.30;;;;;;4897978;29;20483;-85
2021/01/30 10:37:53;;;;;;;14.32;11.18;;;3.20;74.90;;;;;;4886386;29;20543;-84
2021/01/30 10:40:33;;;;;;;13.77;10.63;;;3.20;74.80;;;;;;4890645;29;20048;-86
2021/01/30 10:43:01;;;;;;;11.88;9.88;;;3.20;74.90;;;;;;4876529;29;20040;-86
2021/01/30 10:45:30;;;;;;;15.13;10.55;;;3.20;74.90;;;;;;4877703;29;20032;-86
2021/01/30 10:48:08;;;;;;;13.07;9.95;;;3.20;74.90;;;;;;4880180;29;20032;-86
2021/01/30 10:50:40;;;;;;;13.77;10.05;;;3.20;74.80;;;;;;4887687;29;20104;-85
2021/01/30 10:53:39;;;;;;;12.18;9.20;;;3.20;74.80;;;;;;4898083;29;20039;-85
2021/01/30 10:56:31;;;;;;;11.23;8.90;;;3.30;74.90;;;;;;4881476;29;20037;-86
2021/01/30 10:58:58;;;;;;;12.80;9.48;;;3.30;74.90;;;;;;4894446;29;20131;-86
2021/01/30 11:01:32;;;;;;;12.27;9.02;;;3.30;74.90;;;;;;4881641;29;20040;-86
2021/01/30 11:04:00;;;;;;;13.00;10.32;;;3.30;74.90;;;;;;4899711;29;20051;-86
2021/01/30 11:06:47;;;;;;;11.43;9.20;;;3.40;74.90;;;;;;4894541;29;20070;-86
2021/01/30 11:09:23;;;;;;;10.15;8.43;;;3.40;74.90;;;;;;4879892;29;20290;-86
2021/01/30 11:11:51;;;;;;;10.38;9.15;;;3.40;74.90;;;;;;4880957;29;20088;-86
2021/01/30 11:14:30;;;;;;;11.68;9.63;;;3.40;74.80;;;;;;4879313;29;20498;-86
2021/01/30 11:16:56;;;;;;;;;;;3.40;74.50;;;;;;4880179;29;20507;-86
2021/01/30 11:19:27;;;;;;;11.65;9.00;;;3.40;74.40;;;;;;4864310;29;19911;-86
2021/01/30 11:22:20;;;;;;;10.77;9.38;;;3.40;74.50;;;;;;4896251;29;20029;-85
2021/01/30 11:24:52;;;;;;;10.57;9.10;;;3.40;74.30;;;;;;4882785;29;20032;-87
2021/01/30 11:27:45;;;;;;;10.77;8.85;;;3.40;74.40;;;;;;4879268;29;20033;-86
2021/01/30 11:30:16;;;;;;;9.82;8.00;;;3.40;74.50;;;;;;4879697;29;20029;-86
2021/01/30 11:32:54;;;;;;;12.32;8.48;;;3.40;74.50;;;;;;4880443;29;20400;-86
2021/01/30 11:35:35;;;;;;;9.57;8.57;;;3.40;74.60;;;;;;4879953;29;20028;-86
2021/01/30 11:38:16;;;;;;;11.93;8.68;;;3.40;74.70;;;;;;4880024;29;20368;-86
2021/01/30 11:40:43;;;;;;;11.60;8.63;;;3.50;74.60;;;;;;4880725;29;20156;-86
2021/01/30 11:43:09;;;;;;;11.95;9.65;;;3.50;74.60;;;;;;4862921;29;20028;-87
2021/01/30 11:45:36;;;;;;;11.82;9.25;;;3.50;74.70;;;;;;4881848;29;20479;-86
2021/01/30 11:48:02;;;;;;;10.05;8.43;;;3.50;74.60;;;;;;4897969;29;20124;-86
2021/01/30 11:50:28;;;;;;;15.82;11.20;;;3.60;74.70;;;;;;4897819;29;20116;-86
2021/01/30 11:53:12;;;;;;;13.82;10.57;;;3.60;74.70;;;;;;4867056;29;20037;-86
2021/01/30 11:55:39;;;;;;;12.98;10.52;;;3.70;74.90;;;;;;4897649;29;20558;-86
2021/01/30 11:58:05;;;;;;;13.18;10.63;;;3.70;75.00;;;;;;4876055;29;20044;-86
2021/01/30 12:00:31;;;;;;;12.63;9.85;;;3.70;75.00;;;;;;4866296;29;20037;-86
2021/01/30 12:02:59;;;;;;;13.20;10.73;;;3.70;74.90;;;;;;4881517;29;20040;-86
2021/01/30 12:05:25;;;;;;;12.83;10.30;;;3.80;74.80;;;;;;4880339;29;20040;-86
2021/01/30 12:07:51;;;;;;;13.13;10.82;;;3.80;74.80;;;;;;4880459;29;20028;-86
2021/01/30 12:10:18;;;;;;;12.25;9.55;;;3.80;74.50;;;;;;4897744;29;20041;-86
2021/01/30 12:12:44;;;;;;;14.00;10.13;;;3.80;74.40;;;;;;4865351;29;20063;-85
2021/01/30 12:15:11;;;;;;;11.57;9.48;;;3.80;74.20;;;;;;4897422;29;20475;-86
2021/01/30 12:17:39;;;;;;;11.93;9.30;;;3.80;74.30;;;;;;4881531;29;20562;-86
2021/01/30 12:20:06;;;;;;;14.10;10.32;;;3.90;74.50;;;;;;4897019;29;20394;-86
2021/01/30 12:22:32;;;;;;;12.10;9.65;;;3.80;74.30;;;;;;4881667;29;20029;-86
2021/01/30 12:24:58;;;;;;;11.65;9.35;;;3.90;74.50;;;;;;4897639;29;20123;-86
2021/01/30 12:27:25;;;;;;;12.20;9.93;;;3.90;74.40;;;;;;4896918;29;20028;-86
2021/01/30 12:29:50;;;;;;;11.43;8.60;;;3.90;74.50;;;;;;4898358;29;20479;-86
2021/01/30 12:32:18;;;;;;;12.30;9.55;;;4.00;74.50;;;;;;4879552;29;20041;-86
2021/01/30 12:34:43;;;;;;;12.27;8.43;;;4.00;74.40;;;;;;4874515;29;20045;-86
2021/01/30 12:37:09;;;;;;;9.88;8.68;;;4.00;74.50;;;;;;4873354;29;20544;-86
2021/01/30 12:39:35;;;;;;;10.00;8.50;;;4.10;74.50;;;;;;4885663;24;20057;-89
2021/01/30 12:42:00;;;;;;;11.63;8.95;;;4.10;74.30;;;;;;4872100;29;20086;-89
2021/01/30 12:44:26;;;;;;;11.48;8.80;;;4.10;74.30;;;;;;4874539;29;20065;-90
2021/01/30 12:46:55;;;;;;;10.38;8.48;;;4.10;74.20;;;;;;4869688;29;20029;-89
2021/01/30 12:49:46;;;;;;;9.98;7.93;;;4.10;74.10;;;;;;4882411;29;20558;-88
2021/01/30 12:52:22;;;;;;;10.07;8.18;;;4.20;74.10;;;;;;4871263;29;20539;-88
2021/01/30 12:54:50;;;;;;;10.00;8.35;;;4.20;74.10;;;;;;4888670;29;20025;-88
2021/01/30 12:57:16;;;;;;;11.43;8.87;;;4.20;74.10;;;;;;4881589;29;20049;-88
2021/01/30 12:59:50;;;;;;;10.98;8.45;;;4.30;74.00;;;;;;4865139;29;20041;-90
2021/01/30 13:02:48;;;;;;;10.23;8.30;;;4.20;74.00;;;;;;4881467;29;20028;-90
2021/01/30 14:22:28;;;;;;;7.72;5.70;;;4.60;73.10;;;;;;4748059;30;20062;-91
2021/01/30 14:24:54;;;;;;;7.28;5.18;;;4.60;72.80;;;;;;4808020;29;20045;-91
2021/01/30 14:27:19;;;;;;;6.40;4.43;;;4.60;72.80;;;;;;4834144;29;20152;-90
2021/01/30 14:29:48;;;;;;;6.15;4.40;;;4.60;72.90;;;;;;4855932;29;20078;-90
2021/01/30 14:32:13;;;;;;;8.00;5.17;;;4.70;73.00;;;;;;4838449;29;20037;-89
2021/01/30 14:34:39;;;;;;;6.30;4.35;;;4.60;72.50;;;;;;4846170;29;20263;-90
2021/01/30 14:37:07;;;;;;;6.55;4.15;;;4.70;72.60;;;;;;4883938;29;20104;-89
2021/01/30 14:39:33;;;;;;;5.67;4.00;;;4.70;72.40;;;;;;4870893;29;20041;-90
2021/01/30 14:42:02;;;;;;;8.10;4.28;;;4.70;72.20;;;;;;4850749;29;20226;-92